sensor_id;sensor_type;location;lat;lon;timestamp;pressure;altitude;pressure_sealevel;temperature
77789;BMP280;70537;44.384;0.512;2023-10-19T00:01:16;99436.59;;;15.92
77789;BMP280;70537;44.384;0.512;2023-10-19T00:03:43;99431.16;;;15.84
77789;BMP280;70537;44.384;0.512;2023-10-19T00:06:11;99430.81;;;15.72
77789;BMP280;70537;44.384;0.512;2023-10-19T00:08:37;99431.34;;;15.78
77789;BMP280;70537;44.384;0.512;2023-10-19T00:11:07;99436.25;;;15.88
77789;BMP280;70537;44.384;0.512;2023-10-19T00:13:33;99425.31;;;15.95
77789;BMP280;70537;44.384;0.512;2023-10-19T00:16:01;99423.81;;;16.02
77789;BMP280;70537;44.384;0.512;2023-10-19T00:18:32;99421.28;;;16.04
77789;BMP280;70537;44.384;0.512;2023-10-19T00:21:00;99429.50;;;16.04
77789;BMP280;70537;44.384;0.512;2023-10-19T00:23:36;99424.72;;;15.97
77789;BMP280;70537;44.384;0.512;2023-10-19T00:26:03;99423.31;;;15.96
77789;BMP280;70537;44.384;0.512;2023-10-19T00:28:43;99411.97;;;15.92
77789;BMP280;70537;44.384;0.512;2023-10-19T00:31:12;99413.28;;;15.83
77789;BMP280;70537;44.384;0.512;2023-10-19T00:33:39;99412.75;;;15.85
77789;BMP280;70537;44.384;0.512;2023-10-19T00:36:05;99391.72;;;15.95
77789;BMP280;70537;44.384;0.512;2023-10-19T00:38:37;99406.53;;;15.99
77789;BMP280;70537;44.384;0.512;2023-10-19T00:41:13;99398.66;;;16.03
77789;BMP280;70537;44.384;0.512;2023-10-19T00:43:44;99396.09;;;15.98
77789;BMP280;70537;44.384;0.512;2023-10-19T00:46:18;99399.03;;;16.00
77789;BMP280;70537;44.384;0.512;2023-10-19T00:48:44;99399.03;;;16.00
77789;BMP280;70537;44.384;0.512;2023-10-19T00:51:12;99394.28;;;16.00
77789;BMP280;70537;44.384;0.512;2023-10-19T00:54:18;99399.00;;;16.23
77789;BMP280;70537;44.384;0.512;2023-10-19T00:56:53;99389.88;;;16.20
77789;BMP280;70537;44.384;0.512;2023-10-19T00:59:21;99393.09;;;16.26
77789;BMP280;70537;44.384;0.512;2023-10-19T01:01:51;99390.56;;;16.28
77789;BMP280;70537;44.384;0.512;2023-10-19T01:04:22;99392.38;;;16.26
77789;BMP280;70537;44.384;0.512;2023-10-19T01:06:51;99393.81;;;16.35
77789;BMP280;70537;44.384;0.512;2023-10-19T01:09:35;99392.88;;;16.40
77789;BMP280;70537;44.384;0.512;2023-10-19T01:12:02;99394.91;;;16.39
77789;BMP280;70537;44.384;0.512;2023-10-19T01:15:03;99385.72;;;16.52
77789;BMP280;70537;44.384;0.512;2023-10-19T01:17:34;99373.66;;;16.55
77789;BMP280;70537;44.384;0.512;2023-10-19T01:20:08;99366.16;;;16.56
77789;BMP280;70537;44.384;0.512;2023-10-19T01:22:58;99365.41;;;16.63
77789;BMP280;70537;44.384;0.512;2023-10-19T01:25:56;99362.44;;;16.68
77789;BMP280;70537;44.384;0.512;2023-10-19T01:28:23;99363.50;;;16.73
77789;BMP280;70537;44.384;0.512;2023-10-19T01:31:22;99349.78;;;16.81
77789;BMP280;70537;44.384;0.512;2023-10-19T01:33:58;99343.91;;;16.84
77789;BMP280;70537;44.384;0.512;2023-10-19T01:36:25;99341.59;;;16.98
77789;BMP280;70537;44.384;0.512;2023-10-19T01:38:52;99333.97;;;16.96
77789;BMP280;70537;44.384;0.512;2023-10-19T01:41:22;99336.88;;;16.98
77789;BMP280;70537;44.384;0.512;2023-10-19T01:43:50;99335.41;;;16.97
77789;BMP280;70537;44.384;0.512;2023-10-19T01:46:17;99326.81;;;17.01
77789;BMP280;70537;44.384;0.512;2023-10-19T01:48:56;99325.16;;;16.98
77789;BMP280;70537;44.384;0.512;2023-10-19T01:51:23;99328.09;;;17.00
77789;BMP280;70537;44.384;0.512;2023-10-19T01:53:49;99328.09;;;17.00
77789;BMP280;70537;44.384;0.512;2023-10-19T01:56:16;99320.75;;;17.02
77789;BMP280;70537;44.384;0.512;2023-10-19T01:58:45;99321.84;;;17.07
77789;BMP280;70537;44.384;0.512;2023-10-19T02:01:15;99324.16;;;17.11
77789;BMP280;70537;44.384;0.512;2023-10-19T02:03:46;99306.06;;;17.15
77789;BMP280;70537;44.384;0.512;2023-10-19T02:06:14;99312.13;;;17.31
77789;BMP280;70537;44.384;0.512;2023-10-19T02:08:48;99307.34;;;17.32
77789;BMP280;70537;44.384;0.512;2023-10-19T02:11:16;99297.22;;;17.42
77789;BMP280;70537;44.384;0.512;2023-10-19T02:13:44;99283.59;;;17.52
77789;BMP280;70537;44.384;0.512;2023-10-19T02:16:13;99290.03;;;17.64
77789;BMP280;70537;44.384;0.512;2023-10-19T02:18:41;99289.00;;;17.77
77789;BMP280;70537;44.384;0.512;2023-10-19T02:21:07;99288.81;;;17.74
77789;BMP280;70537;44.384;0.512;2023-10-19T02:23:33;99276.72;;;17.78
77789;BMP280;70537;44.384;0.512;2023-10-19T02:26:01;99272.66;;;17.79
77789;BMP280;70537;44.384;0.512;2023-10-19T02:28:29;99264.41;;;17.96
77789;BMP280;70537;44.384;0.512;2023-10-19T02:30:58;99264.91;;;18.02
77789;BMP280;70537;44.384;0.512;2023-10-19T02:33:29;99268.09;;;18.08
77789;BMP280;70537;44.384;0.512;2023-10-19T02:35:55;99266.97;;;18.11
77789;BMP280;70537;44.384;0.512;2023-10-19T02:38:22;99278.63;;;18.02
77789;BMP280;70537;44.384;0.512;2023-10-19T02:40:47;99269.06;;;18.03
77789;BMP280;70537;44.384;0.512;2023-10-19T02:43:13;99256.50;;;18.00
77789;BMP280;70537;44.384;0.512;2023-10-19T02:45:38;99251.91;;;18.03
77789;BMP280;70537;44.384;0.512;2023-10-19T02:48:04;99246.41;;;18.03
77789;BMP280;70537;44.384;0.512;2023-10-19T02:50:29;99248.72;;;18.06
77789;BMP280;70537;44.384;0.512;2023-10-19T02:52:55;99248.88;;;18.08
77789;BMP280;70537;44.384;0.512;2023-10-19T02:55:21;99251.78;;;18.10
77789;BMP280;70537;44.384;0.512;2023-10-19T02:57:49;99246.72;;;18.07
77789;BMP280;70537;44.384;0.512;2023-10-19T03:00:16;99236.03;;;18.11
77789;BMP280;70537;44.384;0.512;2023-10-19T03:02:46;99238.63;;;18.09
77789;BMP280;70537;44.384;0.512;2023-10-19T03:05:12;99238.63;;;18.09
77789;BMP280;70537;44.384;0.512;2023-10-19T03:07:42;99226.59;;;18.04
77789;BMP280;70537;44.384;0.512;2023-10-19T03:10:09;99214.16;;;18.03
77789;BMP280;70537;44.384;0.512;2023-10-19T03:12:54;99213.13;;;17.98
77789;BMP280;70537;44.384;0.512;2023-10-19T03:15:21;99207.50;;;17.96
77789;BMP280;70537;44.384;0.512;2023-10-19T03:17:47;99204.59;;;17.94
77789;BMP280;70537;44.384;0.512;2023-10-19T03:20:14;99199.78;;;17.85
77789;BMP280;70537;44.384;0.512;2023-10-19T03:22:42;99206.31;;;17.90
77789;BMP280;70537;44.384;0.512;2023-10-19T03:25:08;99199.19;;;17.87
77789;BMP280;70537;44.384;0.512;2023-10-19T03:27:54;99191.28;;;17.91
77789;BMP280;70537;44.384;0.512;2023-10-19T03:30:20;99186.09;;;17.95
77789;BMP280;70537;44.384;0.512;2023-10-19T03:32:49;99186.25;;;17.97
77789;BMP280;70537;44.384;0.512;2023-10-19T03:35:15;99171.97;;;17.98
77789;BMP280;70537;44.384;0.512;2023-10-19T03:37:41;99181.78;;;18.02
77789;BMP280;70537;44.384;0.512;2023-10-19T03:40:08;99171.22;;;17.98
77789;BMP280;70537;44.384;0.512;2023-10-19T03:42:34;99176.59;;;17.96
77789;BMP280;70537;44.384;0.512;2023-10-19T03:45:07;99170.06;;;17.91
77789;BMP280;70537;44.384;0.512;2023-10-19T03:47:38;99176.66;;;17.88
77789;BMP280;70537;44.384;0.512;2023-10-19T03:50:05;99176.13;;;17.90
77789;BMP280;70537;44.384;0.512;2023-10-19T03:52:39;99154.56;;;17.86
77789;BMP280;70537;44.384;0.512;2023-10-19T03:55:05;99162.94;;;17.88
77789;BMP280;70537;44.384;0.512;2023-10-19T03:57:36;99166.16;;;17.94
77789;BMP280;70537;44.384;0.512;2023-10-19T04:00:05;99168.50;;;17.98
77789;BMP280;70537;44.384;0.512;2023-10-19T04:02:36;99155.81;;;18.03
77789;BMP280;70537;44.384;0.512;2023-10-19T04:05:04;99163.00;;;17.98
77789;BMP280;70537;44.384;0.512;2023-10-19T04:07:29;99163.00;;;17.98
77789;BMP280;70537;44.384;0.512;2023-10-19T04:09:58;99167.88;;;17.90
77789;BMP280;70537;44.384;0.512;2023-10-19T04:12:37;99162.09;;;17.86
77789;BMP280;70537;44.384;0.512;2023-10-19T04:15:05;99155.44;;;17.89
77789;BMP280;70537;44.384;0.512;2023-10-19T04:17:45;99151.09;;;17.86
77789;BMP280;70537;44.384;0.512;2023-10-19T04:20:11;99155.28;;;17.87
77789;BMP280;70537;44.384;0.512;2023-10-19T04:22:43;99138.94;;;17.79
77789;BMP280;70537;44.384;0.512;2023-10-19T04:25:09;99133.75;;;17.83
77789;BMP280;70537;44.384;0.512;2023-10-19T04:27:41;99128.38;;;17.76
77789;BMP280;70537;44.384;0.512;2023-10-19T04:30:14;99130.81;;;17.71
77789;BMP280;70537;44.384;0.512;2023-10-19T04:32:52;99126.34;;;17.76
77789;BMP280;70537;44.384;0.512;2023-10-19T04:35:19;99125.16;;;17.69
77789;BMP280;70537;44.384;0.512;2023-10-19T04:37:52;99124.44;;;17.69
77789;BMP280;70537;44.384;0.512;2023-10-19T04:40:21;99102.19;;;17.65
77789;BMP280;70537;44.384;0.512;2023-10-19T04:42:50;99089.97;;;17.76
77789;BMP280;70537;44.384;0.512;2023-10-19T04:45:15;99084.63;;;17.78
77789;BMP280;70537;44.384;0.512;2023-10-19T04:47:41;99064.56;;;17.85
77789;BMP280;70537;44.384;0.512;2023-10-19T04:50:07;99064.56;;;17.85
77789;BMP280;70537;44.384;0.512;2023-10-19T04:52:32;99060.97;;;17.82
77789;BMP280;70537;44.384;0.512;2023-10-19T04:54:58;99056.88;;;17.73
77789;BMP280;70537;44.384;0.512;2023-10-19T04:57:24;99054.00;;;17.71
77789;BMP280;70537;44.384;0.512;2023-10-19T04:59:51;99051.53;;;17.66
77789;BMP280;70537;44.384;0.512;2023-10-19T05:02:17;99039.97;;;17.67
77789;BMP280;70537;44.384;0.512;2023-10-19T05:04:43;99031.75;;;17.67
77789;BMP280;70537;44.384;0.512;2023-10-19T05:07:11;99026.38;;;17.60
77789;BMP280;70537;44.384;0.512;2023-10-19T05:09:38;99032.28;;;17.56
77789;BMP280;70537;44.384;0.512;2023-10-19T05:12:06;99038.19;;;17.53
77789;BMP280;70537;44.384;0.512;2023-10-19T05:14:39;99027.19;;;17.43
77789;BMP280;70537;44.384;0.512;2023-10-19T05:17:08;99018.56;;;17.29
77789;BMP280;70537;44.384;0.512;2023-10-19T05:19:38;99007.00;;;17.21
77789;BMP280;70537;44.384;0.512;2023-10-19T05:22:08;99010.81;;;17.08
77789;BMP280;70537;44.384;0.512;2023-10-19T05:24:35;99004.16;;;17.01
77789;BMP280;70537;44.384;0.512;2023-10-19T05:27:01;98984.47;;;16.95
77789;BMP280;70537;44.384;0.512;2023-10-19T05:29:27;98991.69;;;16.91
77789;BMP280;70537;44.384;0.512;2023-10-19T05:31:53;98992.94;;;16.90
77789;BMP280;70537;44.384;0.512;2023-10-19T05:34:23;98994.56;;;16.93
77789;BMP280;70537;44.384;0.512;2023-10-19T05:36:49;98984.47;;;16.95
77789;BMP280;70537;44.384;0.512;2023-10-19T05:39:15;98993.44;;;16.96
77789;BMP280;70537;44.384;0.512;2023-10-19T05:41:41;98993.56;;;16.98
77789;BMP280;70537;44.384;0.512;2023-10-19T05:44:06;98993.19;;;17.01
77789;BMP280;70537;44.384;0.512;2023-10-19T05:46:32;98994.91;;;16.97
77789;BMP280;70537;44.384;0.512;2023-10-19T05:48:57;98986.34;;;16.93
77789;BMP280;70537;44.384;0.512;2023-10-19T05:51:23;98999.50;;;16.94
77789;BMP280;70537;44.384;0.512;2023-10-19T05:53:50;98997.78;;;16.99
77789;BMP280;70537;44.384;0.512;2023-10-19T05:56:16;99005.19;;;17.06
77789;BMP280;70537;44.384;0.512;2023-10-19T05:58:43;99019.13;;;17.18
77789;BMP280;70537;44.384;0.512;2023-10-19T06:01:08;99022.03;;;17.30
77789;BMP280;70537;44.384;0.512;2023-10-19T06:03:34;99031.66;;;17.48
77789;BMP280;70537;44.384;0.512;2023-10-19T06:05:59;99013.63;;;17.45
77789;BMP280;70537;44.384;0.512;2023-10-19T06:08:25;99027.78;;;17.51
77789;BMP280;70537;44.384;0.512;2023-10-19T06:10:52;99032.53;;;17.50
77789;BMP280;70537;44.384;0.512;2023-10-19T06:13:18;99039.19;;;17.47
77789;BMP280;70537;44.384;0.512;2023-10-19T06:15:44;99034.81;;;17.44
77789;BMP280;70537;44.384;0.512;2023-10-19T06:18:09;99047.34;;;17.38
77789;BMP280;70537;44.384;0.512;2023-10-19T06:20:42;99039.25;;;17.40
77789;BMP280;70537;44.384;0.512;2023-10-19T06:23:09;99009.69;;;17.38
77789;BMP280;70537;44.384;0.512;2023-10-19T06:25:35;98997.09;;;17.35
77789;BMP280;70537;44.384;0.512;2023-10-19T06:28:01;98996.25;;;17.33
77789;BMP280;70537;44.384;0.512;2023-10-19T06:30:27;98978.03;;;17.28
77789;BMP280;70537;44.384;0.512;2023-10-19T06:32:54;98984.34;;;17.20
77789;BMP280;70537;44.384;0.512;2023-10-19T06:35:21;98981.44;;;17.18
77789;BMP280;70537;44.384;0.512;2023-10-19T06:37:47;98987.25;;;17.22
77789;BMP280;70537;44.384;0.512;2023-10-19T06:40:14;99001.00;;;17.32
77789;BMP280;70537;44.384;0.512;2023-10-19T06:42:46;99004.91;;;17.39
77789;BMP280;70537;44.384;0.512;2023-10-19T06:45:16;99010.88;;;17.45
77789;BMP280;70537;44.384;0.512;2023-10-19T06:47:43;99011.88;;;17.49
77789;BMP280;70537;44.384;0.512;2023-10-19T06:50:10;99023.44;;;17.48
77789;BMP280;70537;44.384;0.512;2023-10-19T06:52:38;99031.97;;;17.52
77789;BMP280;70537;44.384;0.512;2023-10-19T06:55:05;99026.31;;;17.50
77789;BMP280;70537;44.384;0.512;2023-10-19T06:57:45;99040.03;;;17.50
77789;BMP280;70537;44.384;0.512;2023-10-19T07:00:16;99030.53;;;17.51
77789;BMP280;70537;44.384;0.512;2023-10-19T07:02:54;99029.94;;;17.53
77789;BMP280;70537;44.384;0.512;2023-10-19T07:05:22;99032.75;;;17.62
77789;BMP280;70537;44.384;0.512;2023-10-19T07:08:01;99022.78;;;17.67
77789;BMP280;70537;44.384;0.512;2023-10-19T07:10:30;99036.66;;;17.69
77789;BMP280;70537;44.384;0.512;2023-10-19T11:09:11;98742.69;;;22.04
77789;BMP280;70537;44.384;0.512;2023-10-19T11:11:37;98735.09;;;22.18
77789;BMP280;70537;44.384;0.512;2023-10-19T11:14:10;98717.00;;;22.43
77789;BMP280;70537;44.384;0.512;2023-10-19T11:16:36;98713.28;;;22.52
77789;BMP280;70537;44.384;0.512;2023-10-19T11:19:04;98701.22;;;22.45
77789;BMP280;70537;44.384;0.512;2023-10-19T11:21:30;98709.59;;;22.61
77789;BMP280;70537;44.384;0.512;2023-10-19T11:23:55;98696.06;;;23.74
77789;BMP280;70537;44.384;0.512;2023-10-19T11:26:23;98686.69;;;23.81
77789;BMP280;70537;44.384;0.512;2023-10-19T11:29:01;98695.34;;;23.26
77789;BMP280;70537;44.384;0.512;2023-10-19T11:31:29;98686.81;;;23.06
77789;BMP280;70537;44.384;0.512;2023-10-19T11:34:03;98658.78;;;22.68
77789;BMP280;70537;44.384;0.512;2023-10-19T11:36:29;98654.63;;;22.54
77789;BMP280;70537;44.384;0.512;2023-10-19T11:38:54;98652.13;;;22.30
77789;BMP280;70537;44.384;0.512;2023-10-19T11:41:20;98649.84;;;22.40
77789;BMP280;70537;44.384;0.512;2023-10-19T11:43:47;98644.44;;;22.42
77789;BMP280;70537;44.384;0.512;2023-10-19T11:46:13;98645.66;;;22.39
77789;BMP280;70537;44.384;0.512;2023-10-19T11:48:48;98637.00;;;22.17
77789;BMP280;70537;44.384;0.512;2023-10-19T11:51:13;98636.28;;;22.17
77789;BMP280;70537;44.384;0.512;2023-10-19T11:53:40;98643.19;;;22.45
77789;BMP280;70537;44.384;0.512;2023-10-19T11:56:08;98635.34;;;22.40
77789;BMP280;70537;44.384;0.512;2023-10-19T11:58:35;98637.72;;;22.32
77789;BMP280;70537;44.384;0.512;2023-10-19T12:01:03;98618.47;;;22.20
77789;BMP280;70537;44.384;0.512;2023-10-19T12:03:32;98620.38;;;22.31
77789;BMP280;70537;44.384;0.512;2023-10-19T12:06:00;98603.38;;;22.37
77789;BMP280;70537;44.384;0.512;2023-10-19T12:08:29;98586.81;;;22.37
77789;BMP280;70537;44.384;0.512;2023-10-19T12:10:54;98583.31;;;22.36
77789;BMP280;70537;44.384;0.512;2023-10-19T12:13:20;98589.97;;;22.45
77789;BMP280;70537;44.384;0.512;2023-10-19T12:15:45;98583.81;;;22.46
77789;BMP280;70537;44.384;0.512;2023-10-19T12:18:18;98575.34;;;22.42
77789;BMP280;70537;44.384;0.512;2023-10-19T12:20:44;98567.25;;;22.33
77789;BMP280;70537;44.384;0.512;2023-10-19T12:23:11;98550.16;;;22.36
77789;BMP280;70537;44.384;0.512;2023-10-19T12:25:37;98549.81;;;22.28
77789;BMP280;70537;44.384;0.512;2023-10-19T12:28:04;98560.78;;;22.12
77789;BMP280;70537;44.384;0.512;2023-10-19T12:30:29;98565.63;;;21.84
77789;BMP280;70537;44.384;0.512;2023-10-19T12:33:01;98556.72;;;21.86
77789;BMP280;70537;44.384;0.512;2023-10-19T12:35:30;98556.94;;;21.62
77789;BMP280;70537;44.384;0.512;2023-10-19T12:38:11;98545.28;;;21.50
77789;BMP280;70537;44.384;0.512;2023-10-19T12:40:42;98539.69;;;21.48
77789;BMP280;70537;44.384;0.512;2023-10-19T12:43:08;98528.72;;;21.50
77789;BMP280;70537;44.384;0.512;2023-10-19T12:45:35;98526.19;;;21.54
77789;BMP280;70537;44.384;0.512;2023-10-19T12:48:06;98513.38;;;21.61
77789;BMP280;70537;44.384;0.512;2023-10-19T12:50:35;98521.25;;;21.53
77789;BMP280;70537;44.384;0.512;2023-10-19T12:53:02;98522.50;;;21.63
77789;BMP280;70537;44.384;0.512;2023-10-19T12:55:27;98519.28;;;21.83
77789;BMP280;70537;44.384;0.512;2023-10-19T12:57:53;98526.47;;;21.88
77789;BMP280;70537;44.384;0.512;2023-10-19T13:00:19;98526.91;;;22.12
77789;BMP280;70537;44.384;0.512;2023-10-19T13:03:03;98531.41;;;22.19
77789;BMP280;70537;44.384;0.512;2023-10-19T13:05:36;98513.00;;;22.39
77789;BMP280;70537;44.384;0.512;2023-10-19T13:08:06;98494.31;;;22.54
77789;BMP280;70537;44.384;0.512;2023-10-19T13:10:33;98481.22;;;22.54
77789;BMP280;70537;44.384;0.512;2023-10-19T13:13:00;98477.50;;;22.63
77789;BMP280;70537;44.384;0.512;2023-10-19T13:15:33;98457.78;;;22.55
77789;BMP280;70537;44.384;0.512;2023-10-19T13:18:00;98458.53;;;22.42
77789;BMP280;70537;44.384;0.512;2023-10-19T13:20:27;98471.22;;;22.47
77789;BMP280;70537;44.384;0.512;2023-10-19T13:23:03;98478.66;;;22.29
77789;BMP280;70537;44.384;0.512;2023-10-19T13:25:31;98460.22;;;22.33
77789;BMP280;70537;44.384;0.512;2023-10-19T13:28:15;98469.97;;;22.20
77789;BMP280;70537;44.384;0.512;2023-10-19T13:30:50;98464.00;;;22.10
77789;BMP280;70537;44.384;0.512;2023-10-19T13:33:16;98459.72;;;22.07
77789;BMP280;70537;44.384;0.512;2023-10-19T13:35:43;98447.16;;;22.04
77789;BMP280;70537;44.384;0.512;2023-10-19T13:38:10;98442.19;;;21.87
77789;BMP280;70537;44.384;0.512;2023-10-19T13:40:40;98442.38;;;21.91
77789;BMP280;70537;44.384;0.512;2023-10-19T13:43:06;98430.38;;;21.70
77789;BMP280;70537;44.384;0.512;2023-10-19T13:45:36;98419.06;;;21.64
77789;BMP280;70537;44.384;0.512;2023-10-19T13:48:03;98397.38;;;21.59
77789;BMP280;70537;44.384;0.512;2023-10-19T13:50:30;98404.66;;;21.52
77789;BMP280;70537;44.384;0.512;2023-10-19T13:52:56;98408.53;;;21.47
77789;BMP280;70537;44.384;0.512;2023-10-19T13:55:30;98396.19;;;21.34
77789;BMP280;70537;44.384;0.512;2023-10-19T13:57:57;98392.53;;;21.30
77789;BMP280;70537;44.384;0.512;2023-10-19T14:00:23;98388.94;;;21.13
77789;BMP280;70537;44.384;0.512;2023-10-19T14:03:04;98391.91;;;21.04
77789;BMP280;70537;44.384;0.512;2023-10-19T14:05:39;98375.38;;;21.04
77789;BMP280;70537;44.384;0.512;2023-10-19T14:08:05;98395.41;;;20.90
77789;BMP280;70537;44.384;0.512;2023-10-19T14:10:32;98401.59;;;20.77
77789;BMP280;70537;44.384;0.512;2023-10-19T14:12:58;98412.72;;;20.65
77789;BMP280;70537;44.384;0.512;2023-10-19T14:15:24;98413.50;;;20.54
77789;BMP280;70537;44.384;0.512;2023-10-19T14:17:50;98402.44;;;20.40
77789;BMP280;70537;44.384;0.512;2023-10-19T14:20:17;98412.81;;;20.28
77789;BMP280;70537;44.384;0.512;2023-10-19T14:22:44;98421.66;;;20.27
77789;BMP280;70537;44.384;0.512;2023-10-19T14:25:11;98430.84;;;20.17
77789;BMP280;70537;44.384;0.512;2023-10-19T14:27:46;98425.47;;;20.08
77789;BMP280;70537;44.384;0.512;2023-10-19T14:30:14;98431.16;;;19.98
77789;BMP280;70537;44.384;0.512;2023-10-19T14:32:42;98435.72;;;19.93
77789;BMP280;70537;44.384;0.512;2023-10-19T14:35:08;98433.22;;;19.86
77789;BMP280;70537;44.384;0.512;2023-10-19T14:37:40;98431.44;;;19.79
77789;BMP280;70537;44.384;0.512;2023-10-19T14:40:09;98426.41;;;19.75
77789;BMP280;70537;44.384;0.512;2023-10-19T14:42:38;98437.19;;;19.71
77789;BMP280;70537;44.384;0.512;2023-10-19T14:45:07;98438.38;;;19.68
77789;BMP280;70537;44.384;0.512;2023-10-19T14:47:47;98416.66;;;19.60
77789;BMP280;70537;44.384;0.512;2023-10-19T14:50:14;98412.31;;;19.57
77789;BMP280;70537;44.384;0.512;2023-10-19T14:52:48;98388.66;;;19.52
77789;BMP280;70537;44.384;0.512;2023-10-19T14:55:14;98370.59;;;19.49
77789;BMP280;70537;44.384;0.512;2023-10-19T14:57:42;98360.22;;;19.48
77789;BMP280;70537;44.384;0.512;2023-10-19T15:00:10;98358.78;;;19.47
77789;BMP280;70537;44.384;0.512;2023-10-19T15:02:52;98345.53;;;19.43
77789;BMP280;70537;44.384;0.512;2023-10-19T15:05:24;98327.94;;;19.36
77789;BMP280;70537;44.384;0.512;2023-10-19T15:07:53;98336.81;;;19.35
77789;BMP280;70537;44.384;0.512;2023-10-19T15:10:26;98346.13;;;19.30
77789;BMP280;70537;44.384;0.512;2023-10-19T15:12:53;98346.13;;;19.30
77789;BMP280;70537;44.384;0.512;2023-10-19T15:15:18;98338.06;;;19.20
77789;BMP280;70537;44.384;0.512;2023-10-19T15:17:45;98339.59;;;19.23
77789;BMP280;70537;44.384;0.512;2023-10-19T15:20:13;98324.41;;;19.22
77789;BMP280;70537;44.384;0.512;2023-10-19T15:22:40;98304.44;;;19.21
77789;BMP280;70537;44.384;0.512;2023-10-19T15:25:06;98310.56;;;19.20
77789;BMP280;70537;44.384;0.512;2023-10-19T15:27:43;98301.56;;;19.19
77789;BMP280;70537;44.384;0.512;2023-10-19T15:30:10;98294.06;;;19.20
77789;BMP280;70537;44.384;0.512;2023-10-19T15:32:37;98278.75;;;19.17
77789;BMP280;70537;44.384;0.512;2023-10-19T15:35:03;98262.75;;;19.13
77789;BMP280;70537;44.384;0.512;2023-10-19T15:37:29;98258.56;;;19.12
77789;BMP280;70537;44.384;0.512;2023-10-19T15:39:55;98249.50;;;19.10
77789;BMP280;70537;44.384;0.512;2023-10-19T15:42:21;98254.28;;;19.09
77789;BMP280;70537;44.384;0.512;2023-10-19T15:44:47;98267.28;;;19.09
77789;BMP280;70537;44.384;0.512;2023-10-19T15:47:15;98257.75;;;19.10
77789;BMP280;70537;44.384;0.512;2023-10-19T15:49:54;98223.31;;;19.09
77789;BMP280;70537;44.384;0.512;2023-10-19T15:52:24;98190.09;;;19.05
77789;BMP280;70537;44.384;0.512;2023-10-19T15:54:51;98205.41;;;19.08
77789;BMP280;70537;44.384;0.512;2023-10-19T15:57:18;98221.88;;;19.08
77789;BMP280;70537;44.384;0.512;2023-10-19T15:59:44;98228.69;;;19.07
77789;BMP280;70537;44.384;0.512;2023-10-19T16:02:10;98223.09;;;19.05
77789;BMP280;70537;44.384;0.512;2023-10-19T16:04:40;98208.75;;;19.06
77789;BMP280;70537;44.384;0.512;2023-10-19T16:07:14;98203.25;;;19.06
77789;BMP280;70537;44.384;0.512;2023-10-19T16:09:46;98193.47;;;19.03
77789;BMP280;70537;44.384;0.512;2023-10-19T16:12:13;98194.66;;;19.00
77789;BMP280;70537;44.384;0.512;2023-10-19T16:14:40;98194.06;;;19.02
77789;BMP280;70537;44.384;0.512;2023-10-19T16:17:06;98174.59;;;18.98
77789;BMP280;70537;44.384;0.512;2023-10-19T16:19:32;98172.56;;;18.98
77789;BMP280;70537;44.384;0.512;2023-10-19T16:21:58;98160.03;;;18.95
77789;BMP280;70537;44.384;0.512;2023-10-19T16:24:25;98144.03;;;18.91
77789;BMP280;70537;44.384;0.512;2023-10-19T16:26:53;98140.94;;;18.85
77789;BMP280;70537;44.384;0.512;2023-10-19T16:29:22;98124.75;;;18.78
77789;BMP280;70537;44.384;0.512;2023-10-19T16:31:48;98125.59;;;18.68
77789;BMP280;70537;44.384;0.512;2023-10-19T16:34:15;98129.53;;;18.65
77789;BMP280;70537;44.384;0.512;2023-10-19T16:36:43;98132.88;;;18.52
77789;BMP280;70537;44.384;0.512;2023-10-19T16:39:09;98132.06;;;18.50
77789;BMP280;70537;44.384;0.512;2023-10-19T16:41:41;98124.31;;;18.46
77789;BMP280;70537;44.384;0.512;2023-10-19T16:44:07;98128.03;;;18.39
77789;BMP280;70537;44.384;0.512;2023-10-19T16:46:35;98120.75;;;18.32
77789;BMP280;70537;44.384;0.512;2023-10-19T16:49:04;98129.38;;;18.26
77789;BMP280;70537;44.384;0.512;2023-10-19T16:51:34;98135.06;;;18.18
77789;BMP280;70537;44.384;0.512;2023-10-19T16:54:11;98120.03;;;18.08
77789;BMP280;70537;44.384;0.512;2023-10-19T16:56:40;98134.97;;;18.05
77789;BMP280;70537;44.384;0.512;2023-10-19T16:59:12;98133.41;;;18.02
77789;BMP280;70537;44.384;0.512;2023-10-19T17:01:39;98133.31;;;18.00
77789;BMP280;70537;44.384;0.512;2023-10-19T17:04:06;98144.28;;;18.00
77789;BMP280;70537;44.384;0.512;2023-10-19T17:06:32;98149.03;;;17.99
77789;BMP280;70537;44.384;0.512;2023-10-19T17:09:08;98138.69;;;17.97
77789;BMP280;70537;44.384;0.512;2023-10-19T17:11:38;98146.56;;;17.91
77789;BMP280;70537;44.384;0.512;2023-10-19T17:14:05;98152.28;;;17.95
77789;BMP280;70537;44.384;0.512;2023-10-19T17:16:36;98151.53;;;17.95
77789;BMP280;70537;44.384;0.512;2023-10-19T17:19:03;98165.84;;;17.93
77789;BMP280;70537;44.384;0.512;2023-10-19T17:21:32;98160.28;;;17.91
77789;BMP280;70537;44.384;0.512;2023-10-19T17:23:58;98158.25;;;17.92
77789;BMP280;70537;44.384;0.512;2023-10-19T17:26:27;98149.16;;;17.89
77789;BMP280;70537;44.384;0.512;2023-10-19T17:28:56;98147.00;;;17.88
77789;BMP280;70537;44.384;0.512;2023-10-19T17:31:25;98132.31;;;17.83
77789;BMP280;70537;44.384;0.512;2023-10-19T17:33:52;98145.44;;;17.85
77789;BMP280;70537;44.384;0.512;2023-10-19T17:36:26;98155.13;;;17.86
77789;BMP280;70537;44.384;0.512;2023-10-19T17:38:53;98162.63;;;17.85
77789;BMP280;70537;44.384;0.512;2023-10-19T17:41:19;98158.34;;;17.82
77789;BMP280;70537;44.384;0.512;2023-10-19T17:43:46;98153.91;;;17.77
77789;BMP280;70537;44.384;0.512;2023-10-19T17:46:12;98165.47;;;17.76
77789;BMP280;70537;44.384;0.512;2023-10-19T17:48:40;98148.88;;;17.73
77789;BMP280;70537;44.384;0.512;2023-10-19T17:51:10;98146.84;;;17.74
77789;BMP280;70537;44.384;0.512;2023-10-19T17:53:39;98138.38;;;17.70
77789;BMP280;70537;44.384;0.512;2023-10-19T17:56:07;98122.78;;;17.72
77789;BMP280;70537;44.384;0.512;2023-10-19T17:58:34;98120.06;;;17.72
77789;BMP280;70537;44.384;0.512;2023-10-19T18:01:03;98127.53;;;17.72
77789;BMP280;70537;44.384;0.512;2023-10-19T18:03:36;98120.16;;;17.74
77789;BMP280;70537;44.384;0.512;2023-10-19T18:06:07;98119.41;;;17.74
77789;BMP280;70537;44.384;0.512;2023-10-19T18:08:33;98117.66;;;17.67
77789;BMP280;70537;44.384;0.512;2023-10-19T18:11:03;98121.22;;;17.69
77789;BMP280;70537;44.384;0.512;2023-10-19T18:13:30;98112.03;;;17.65
77789;BMP280;70537;44.384;0.512;2023-10-19T18:16:03;98115.47;;;17.65